Terminal Aerodrome Forecast
Issued by NWS

Current Version | Previous Version | Text Only | Print | Product List | Glossary On
Versions: 1 2 3 4 5 6 7 8 9 10 11 12 13 14 15 16 17 18 19
000
FTUS46 KOTX 260520
TAFCOE
TAF
KCOE 260520Z 2606/2706 22020G32KT P6SM VCSH OVC070
     FM260800 22024G38KT P6SM BKN050
     FM261500 22020KT P6SM SCT050 BKN100
     FM261800 23025G32KT P6SM -SHRA SCT025 BKN035 OVC050
     FM270200 22015KT P6SM VCSH SCT020 BKN030 OVC050
      AMD LTD TO CLD AND VIS=

USA.gov is the U.S. government's official web portal to all federal, state and local government web resources and services.